Time;durP1;ratioP1;P1;durP2;ratioP2;P2;SDS_P1;SDS_P2;PMS_P1;PMS_P2;Temp;Humidity;BMP_temperature;BMP_pressure;BME280_temperature;BME280_humidity;BME280_pressure;Samples;Min_cycle;Max_cycle;Signal;HPM_P1;HPM_P2
2022/05/05 00:00:40;;;;;;;24.13;9.40;;;;;;;;;;5048149;28;20048;-59
2022/05/05 00:03:06;;;;;;;18.57;8.63;;;;;;;;;;5048462;28;20045;-59
2022/05/05 00:05:32;;;;;;;18.23;9.57;;;;;;;;;;5048391;28;20045;-59
2022/05/05 00:07:58;;;;;;;22.27;9.77;;;;;;;;;;5047421;28;20045;-59
2022/05/05 00:15:54;;;;;;;23.70;10.43;;;;;;;;;;5045224;28;20045;-59
2022/05/05 00:18:20;;;;;;;21.37;9.20;;;;;;;;;;5027949;28;20056;-59
2022/05/05 00:20:46;;;;;;;15.97;9.77;;;;;;;;;;5028121;28;20083;-59
2022/05/05 00:23:12;;;;;;;16.17;9.50;;;;;;;;;;5046629;28;20132;-59
2022/05/05 00:25:38;;;;;;;18.23;10.87;;;;;;;;;;5048287;28;20120;-59
2022/05/05 00:28:04;;;;;;;24.13;9.93;;;;;;;;;;5047478;28;20045;-59
2022/05/05 00:30:30;;;;;;;21.63;9.40;;;;;;;;;;5034803;28;20111;-59
2022/05/05 00:32:56;;;;;;;18.33;9.37;;;;;;;;;;5028307;28;20524;-59
2022/05/05 00:35:22;;;;;;;22.63;9.67;;;;;;;;;;5028356;28;20091;-59
2022/05/05 00:37:48;;;;;;;22.10;10.27;;;;;;;;;;5028193;28;20041;-59
2022/05/05 00:40:14;;;;;;;16.40;8.30;;;;;;;;;;5027933;28;20563;-59
2022/05/05 00:42:40;;;;;;;18.83;9.80;;;;;;;;;;5026621;28;20164;-59
2022/05/05 00:45:07;;;;;;;23.17;9.83;;;;;;;;;;5027874;28;20133;-59
2022/05/05 00:47:33;;;;;;;16.57;9.27;;;;;;;;;;5044540;28;20045;-59
2022/05/05 00:49:59;;;;;;;18.23;9.60;;;;;;;;;;5047435;28;20041;-59
2022/05/05 00:52:26;;;;;;;20.33;9.93;;;;;;;;;;5047962;28;20048;-59
2022/05/05 00:54:52;;;;;;;15.27;9.33;;;;;;;;;;5031997;28;20061;-59
2022/05/05 00:57:18;;;;;;;17.80;10.23;;;;;;;;;;5030168;28;20052;-59
2022/05/05 00:59:44;;;;;;;18.00;9.63;;;;;;;;;;5031344;28;20045;-59
2022/05/05 01:02:12;;;;;;;14.47;9.07;;;;;;;;;;5031753;28;20033;-59
2022/05/05 01:04:38;;;;;;;21.43;9.20;;;;;;;;;;5032167;28;20053;-59
2022/05/05 01:07:04;;;;;;;22.50;10.07;;;;;;;;;;5031666;28;20041;-59
2022/05/05 01:09:30;;;;;;;15.30;8.73;;;;;;;;;;5031582;28;20045;-59
2022/05/05 01:11:56;;;;;;;17.03;8.77;;;;;;;;;;5032175;28;20452;-59
2022/05/05 01:14:22;;;;;;;17.27;9.73;;;;;;;;;;5032310;28;20099;-59
2022/05/05 01:16:48;;;;;;;20.93;10.30;;;;;;;;;;5032307;28;20045;-59
2022/05/05 01:19:14;;;;;;;22.27;9.20;;;;;;;;;;5032546;28;20049;-59
2022/05/05 01:21:41;;;;;;;22.80;9.67;;;;;;;;;;5050673;28;20091;-59
2022/05/05 01:24:07;;;;;;;19.67;9.63;;;;;;;;;;5051815;28;20053;-59
2022/05/05 01:29:18;;;;;;;16.40;9.73;;;;;;;;;;5051659;28;20057;-59
2022/05/05 01:31:44;;;;;;;20.00;9.83;;;;;;;;;;5051794;28;20052;-59
2022/05/05 01:34:10;;;;;;;16.37;9.77;;;;;;;;;;5049934;28;20801;-59
2022/05/05 01:36:36;;;;;;;19.00;11.13;;;;;;;;;;5040248;28;20550;-59
2022/05/05 01:39:02;;;;;;;14.70;9.47;;;;;;;;;;5030516;28;20128;-59
2022/05/05 01:41:30;;;;;;;22.70;10.13;;;;;;;;;;5031737;28;20420;-59
2022/05/05 01:43:56;;;;;;;17.67;8.77;;;;;;;;;;5032841;28;20091;-59
2022/05/05 01:46:22;;;;;;;26.00;11.57;;;;;;;;;;5040166;28;20053;-59
2022/05/05 01:48:48;;;;;;;22.07;10.57;;;;;;;;;;5032122;28;20487;-59
2022/05/05 01:51:14;;;;;;;22.40;9.77;;;;;;;;;;5031696;28;20111;-59
2022/05/05 01:53:41;;;;;;;18.60;10.43;;;;;;;;;;5031598;28;20049;-59
2022/05/05 01:56:11;;;;;;;23.00;10.40;;;;;;;;;;5033035;28;20499;-59
2022/05/05 01:58:38;;;;;;;18.70;10.43;;;;;;;;;;5031085;28;20056;-59
2022/05/05 02:01:06;;;;;;;16.53;9.03;;;;;;;;;;5030296;28;20096;-59
2022/05/05 02:03:32;;;;;;;22.40;11.47;;;;;;;;;;5031650;28;20056;-59
2022/05/05 02:05:58;;;;;;;23.80;10.10;;;;;;;;;;5031595;28;20045;-59
2022/05/05 02:08:24;;;;;;;19.27;10.13;;;;;;;;;;5031110;28;20076;-59
2022/05/05 02:10:51;;;;;;;23.97;11.17;;;;;;;;;;5031467;28;21017;-59
2022/05/05 02:13:18;;;;;;;32.03;10.90;;;;;;;;;;5031020;28;20049;-59
2022/05/05 02:15:44;;;;;;;25.60;10.83;;;;;;;;;;5031376;28;20045;-59
2022/05/05 02:18:10;;;;;;;32.37;11.43;;;;;;;;;;5031381;28;20072;-59
2022/05/05 02:20:37;;;;;;;22.73;10.53;;;;;;;;;;5031470;28;20120;-59
2022/05/05 02:23:04;;;;;;;21.23;12.40;;;;;;;;;;5031128;28;20049;-59
2022/05/05 02:25:30;;;;;;;22.53;11.83;;;;;;;;;;5031063;28;20496;-59
2022/05/05 02:27:56;;;;;;;26.53;11.67;;;;;;;;;;5031107;28;20049;-59
2022/05/05 02:30:23;;;;;;;20.30;11.13;;;;;;;;;;5030825;28;20522;-59
2022/05/05 02:32:49;;;;;;;23.23;12.83;;;;;;;;;;5030664;28;20470;-59
2022/05/05 02:35:15;;;;;;;22.90;12.10;;;;;;;;;;5033633;28;20053;-59
2022/05/05 02:40:27;;;;;;;26.20;12.90;;;;;;;;;;5036979;28;20073;-59
2022/05/05 02:42:57;;;;;;;24.30;13.03;;;;;;;;;;5050796;28;20140;-59
2022/05/05 02:45:23;;;;;;;30.13;14.40;;;;;;;;;;5036083;28;20041;-59
2022/05/05 02:47:49;;;;;;;21.57;12.47;;;;;;;;;;5030875;28;20045;-59
2022/05/05 02:50:16;;;;;;;25.30;13.33;;;;;;;;;;5030361;28;20046;-59
2022/05/05 02:52:42;;;;;;;28.40;12.03;;;;;;;;;;5044498;28;20049;-59
2022/05/05 02:55:08;;;;;;;21.43;13.40;;;;;;;;;;5049862;28;20048;-59
2022/05/05 02:57:35;;;;;;;25.67;13.80;;;;;;;;;;5050411;28;20037;-59
2022/05/05 03:00:01;;;;;;;24.80;12.93;;;;;;;;;;5050568;28;20510;-59
2022/05/05 03:02:27;;;;;;;25.27;11.60;;;;;;;;;;5038566;28;20050;-59
2022/05/05 03:04:53;;;;;;;32.93;13.50;;;;;;;;;;5038289;28;20045;-59
2022/05/05 03:07:20;;;;;;;24.87;13.63;;;;;;;;;;5040209;28;20140;-59
2022/05/05 03:09:46;;;;;;;27.60;14.20;;;;;;;;;;5038418;28;20107;-59
2022/05/05 03:12:12;;;;;;;29.50;14.07;;;;;;;;;;5037824;28;20041;-59
2022/05/05 03:14:38;;;;;;;27.57;13.50;;;;;;;;;;5037934;28;20073;-59
2022/05/05 03:17:05;;;;;;;25.77;13.40;;;;;;;;;;5039868;28;20049;-59
2022/05/05 03:19:31;;;;;;;27.50;12.90;;;;;;;;;;5038430;28;20045;-59
2022/05/05 03:21:57;;;;;;;23.00;13.30;;;;;;;;;;5040356;28;20384;-59
2022/05/05 03:24:23;;;;;;;27.10;13.93;;;;;;;;;;5040498;28;20048;-59
2022/05/05 03:26:49;;;;;;;28.03;13.90;;;;;;;;;;5049336;28;20140;-59
2022/05/05 03:29:15;;;;;;;31.07;13.87;;;;;;;;;;5049743;28;20143;-60
2022/05/05 03:31:41;;;;;;;26.63;13.20;;;;;;;;;;5049228;28;20055;-59
2022/05/05 03:34:07;;;;;;;24.63;13.23;;;;;;;;;;5038603;28;20138;-60
2022/05/05 03:36:34;;;;;;;27.50;13.70;;;;;;;;;;5036435;28;20564;-59
2022/05/05 03:39:00;;;;;;;26.90;12.00;;;;;;;;;;5029029;28;20049;-59
2022/05/05 03:41:26;;;;;;;28.73;14.40;;;;;;;;;;5029026;28;20041;-59
2022/05/05 03:43:52;;;;;;;28.33;13.57;;;;;;;;;;5029884;28;20044;-59
2022/05/05 03:46:19;;;;;;;27.43;13.03;;;;;;;;;;5028415;28;20060;-59
2022/05/05 03:48:45;;;;;;;31.57;14.93;;;;;;;;;;5029466;28;20041;-59
2022/05/05 03:51:11;;;;;;;25.70;13.37;;;;;;;;;;5029555;28;20045;-59
2022/05/05 03:53:37;;;;;;;30.90;15.13;;;;;;;;;;5029039;28;20049;-59
2022/05/05 03:56:04;;;;;;;28.47;16.40;;;;;;;;;;5028081;28;20503;-59
2022/05/05 03:58:30;;;;;;;27.83;14.80;;;;;;;;;;5029432;28;20140;-59
2022/05/05 04:00:56;;;;;;;30.53;14.60;;;;;;;;;;5029246;28;20049;-59
2022/05/05 04:03:32;;;;;;;30.90;15.10;;;;;;;;;;5029150;28;20625;-59
2022/05/05 04:05:58;;;;;;;32.43;15.67;;;;;;;;;;5028687;28;20041;-59
2022/05/05 04:08:25;;;;;;;29.87;15.17;;;;;;;;;;5029263;28;20045;-59
2022/05/05 04:10:51;;;;;;;33.37;15.00;;;;;;;;;;5028891;28;20038;-59
2022/05/05 04:13:18;;;;;;;30.83;14.83;;;;;;;;;;5028859;28;20135;-59
2022/05/05 04:15:44;;;;;;;35.07;15.53;;;;;;;;;;5028771;28;20499;-59
2022/05/05 04:18:10;;;;;;;32.90;15.03;;;;;;;;;;5028897;28;20055;-59
2022/05/05 04:20:36;;;;;;;34.50;15.43;;;;;;;;;;5028611;28;20045;-59
2022/05/05 04:23:02;;;;;;;32.50;15.47;;;;;;;;;;5028856;28;20064;-59
2022/05/05 04:25:28;;;;;;;40.90;16.20;;;;;;;;;;5028945;28;20044;-59
2022/05/05 04:27:54;;;;;;;35.93;16.03;;;;;;;;;;5028333;28;20071;-59
2022/05/05 04:30:21;;;;;;;35.83;15.07;;;;;;;;;;5028356;28;20057;-59
2022/05/05 04:32:47;;;;;;;38.17;16.20;;;;;;;;;;5028676;28;20508;-59
2022/05/05 04:35:15;;;;;;;32.40;16.93;;;;;;;;;;5047926;28;20052;-59
2022/05/05 04:37:41;;;;;;;33.73;16.97;;;;;;;;;;5048312;28;20073;-59
2022/05/05 04:40:08;;;;;;;37.50;15.77;;;;;;;;;;5048212;28;20037;-59
2022/05/05 04:42:34;;;;;;;27.07;15.17;;;;;;;;;;5041044;28;20087;-59
2022/05/05 04:45:00;;;;;;;38.73;17.60;;;;;;;;;;5048107;28;20041;-59
2022/05/05 04:47:29;;;;;;;32.50;16.77;;;;;;;;;;5047740;28;20044;-59
2022/05/05 04:49:56;;;;;;;33.17;16.77;;;;;;;;;;5048400;28;20391;-59
2022/05/05 04:52:23;;;;;;;37.40;18.23;;;;;;;;;;5041043;28;20052;-59
2022/05/05 04:54:49;;;;;;;41.67;17.50;;;;;;;;;;5027849;28;20049;-59
2022/05/05 04:57:16;;;;;;;37.57;18.73;;;;;;;;;;5028376;28;20052;-59
2022/05/05 04:59:42;;;;;;;36.63;16.87;;;;;;;;;;5028279;28;20045;-59
2022/05/05 05:02:08;;;;;;;35.77;18.03;;;;;;;;;;5030922;28;20164;-59
2022/05/05 05:04:34;;;;;;;31.43;15.97;;;;;;;;;;5028675;28;20053;-59
2022/05/05 05:07:00;;;;;;;33.43;15.13;;;;;;;;;;5027736;28;20095;-59
2022/05/05 05:09:26;;;;;;;35.23;15.90;;;;;;;;;;5028604;28;20072;-59
2022/05/05 05:11:52;;;;;;;39.63;16.87;;;;;;;;;;5028169;28;20051;-60
2022/05/05 05:14:18;;;;;;;40.10;17.20;;;;;;;;;;5028308;28;20098;-59
2022/05/05 05:16:44;;;;;;;36.80;17.50;;;;;;;;;;5028007;28;20041;-59
2022/05/05 05:19:10;;;;;;;40.10;19.37;;;;;;;;;;5028309;28;20735;-59
2022/05/05 05:21:36;;;;;;;34.77;18.30;;;;;;;;;;5027873;28;20041;-59
2022/05/05 05:24:03;;;;;;;41.73;19.30;;;;;;;;;;5028086;28;20053;-60
2022/05/05 05:26:29;;;;;;;39.17;19.40;;;;;;;;;;5028255;28;20056;-59
2022/05/05 05:28:55;;;;;;;42.50;19.53;;;;;;;;;;5035477;28;20036;-60
2022/05/05 05:31:22;;;;;;;38.13;20.43;;;;;;;;;;5051614;28;20135;-59
2022/05/05 05:33:51;;;;;;;25.47;15.03;;;;;;;;;;5046776;28;20179;-59
2022/05/05 05:36:18;;;;;;;32.30;17.23;;;;;;;;;;5041540;28;20356;-59
2022/05/05 05:38:44;;;;;;;35.60;18.10;;;;;;;;;;5027931;28;20057;-59
2022/05/05 05:41:10;;;;;;;32.63;18.30;;;;;;;;;;5041782;28;20049;-59
2022/05/05 05:43:36;;;;;;;46.87;21.97;;;;;;;;;;5049651;28;20045;-59
2022/05/05 05:46:02;;;;;;;36.27;20.17;;;;;;;;;;5031377;28;20057;-60
2022/05/05 05:48:28;;;;;;;41.30;21.30;;;;;;;;;;5036173;28;20052;-60
2022/05/05 05:50:55;;;;;;;37.20;20.90;;;;;;;;;;5050418;28;20391;-60
2022/05/05 05:53:21;;;;;;;37.73;20.87;;;;;;;;;;5049940;28;20045;-60
2022/05/05 05:55:48;;;;;;;40.30;21.10;;;;;;;;;;5051074;28;20049;-60
2022/05/05 05:58:14;;;;;;;41.17;23.10;;;;;;;;;;5050540;28;20586;-60
2022/05/05 06:00:40;;;;;;;38.57;22.23;;;;;;;;;;5035621;28;20134;-60
2022/05/05 06:05:51;;;;;;;43.30;22.93;;;;;;;;;;5030736;28;20061;-60
2022/05/05 06:08:18;;;;;;;45.40;22.07;;;;;;;;;;5049616;28;20037;-60
2022/05/05 06:10:45;;;;;;;42.27;21.10;;;;;;;;;;5042111;28;20080;-60
2022/05/05 06:13:11;;;;;;;34.83;20.40;;;;;;;;;;5031245;28;20057;-60
2022/05/05 06:15:37;;;;;;;26.93;20.13;;;;;;;;;;5032072;28;20055;-60
2022/05/05 06:18:03;;;;;;;31.23;18.27;;;;;;;;;;5030644;28;20092;-60
2022/05/05 06:20:29;;;;;;;29.07;17.63;;;;;;;;;;5030534;28;20041;-60
2022/05/05 06:22:55;;;;;;;37.23;18.20;;;;;;;;;;5030729;28;20137;-60
2022/05/05 06:25:23;;;;;;;33.17;16.37;;;;;;;;;;5030785;28;20138;-60
2022/05/05 06:27:50;;;;;;;27.73;16.87;;;;;;;;;;5030723;28;20128;-60
2022/05/05 06:30:16;;;;;;;24.07;14.50;;;;;;;;;;5030465;28;20104;-60
2022/05/05 06:32:43;;;;;;;25.57;14.80;;;;;;;;;;5044302;28;20144;-60
2022/05/05 06:35:09;;;;;;;20.47;14.40;;;;;;;;;;5049363;28;20111;-60
2022/05/05 06:37:35;;;;;;;23.47;14.00;;;;;;;;;;5050220;28;20041;-60
2022/05/05 06:40:01;;;;;;;28.00;13.93;;;;;;;;;;5050154;28;20080;-60
2022/05/05 06:42:28;;;;;;;23.50;13.10;;;;;;;;;;5049976;28;20091;-60
2022/05/05 06:44:54;;;;;;;23.40;12.47;;;;;;;;;;5050182;28;20051;-60
2022/05/05 06:47:20;;;;;;;28.03;13.00;;;;;;;;;;5041216;28;20527;-61
2022/05/05 06:49:46;;;;;;;21.53;13.30;;;;;;;;;;5048576;28;20053;-60
2022/05/05 06:52:12;;;;;;;26.13;13.53;;;;;;;;;;5049974;28;21951;-60
2022/05/05 06:54:38;;;;;;;27.70;12.77;;;;;;;;;;5049255;28;20132;-61
2022/05/05 06:57:05;;;;;;;16.83;12.07;;;;;;;;;;5064549;28;20040;-60
2022/05/05 06:59:31;;;;;;;22.57;12.20;;;;;;;;;;5067306;28;20131;-60
2022/05/05 07:02:01;;;;;;;21.63;11.53;;;;;;;;;;5061073;28;20061;-60
2022/05/05 07:07:13;;;;;;;22.37;10.63;;;;;;;;;;5069634;28;20045;-60
2022/05/05 07:12:29;;;;;;;22.17;9.87;;;;;;;;;;5041548;28;20639;-60
2022/05/05 07:14:55;;;;;;;21.97;11.30;;;;;;;;;;5038391;28;20052;-61
2022/05/05 07:17:21;;;;;;;23.17;10.00;;;;;;;;;;5051014;28;20114;-61
2022/05/05 07:19:47;;;;;;;17.17;9.80;;;;;;;;;;5067859;28;20406;-61
2022/05/05 07:22:13;;;;;;;19.47;8.47;;;;;;;;;;5064694;28;20055;-61
2022/05/05 07:24:40;;;;;;;19.27;8.47;;;;;;;;;;5056831;28;20098;-61
2022/05/05 07:27:06;;;;;;;16.03;7.80;;;;;;;;;;5047452;28;20045;-61
2022/05/05 07:29:32;;;;;;;11.67;7.60;;;;;;;;;;5048545;28;20056;-61
2022/05/05 07:31:58;;;;;;;15.70;8.30;;;;;;;;;;5069197;28;20587;-61
2022/05/05 07:34:24;;;;;;;16.73;7.67;;;;;;;;;;5051351;28;20526;-61
2022/05/05 07:36:51;;;;;;;17.70;8.60;;;;;;;;;;5056249;28;20124;-61
2022/05/05 07:39:17;;;;;;;20.80;7.90;;;;;;;;;;5066658;28;20048;-61
2022/05/05 07:41:43;;;;;;;18.60;7.80;;;;;;;;;;5062294;28;20149;-61
2022/05/05 07:44:09;;;;;;;13.07;6.73;;;;;;;;;;5048319;28;20041;-61
2022/05/05 07:46:36;;;;;;;17.73;7.20;;;;;;;;;;5046057;28;20053;-61
2022/05/05 07:49:03;;;;;;;13.83;6.57;;;;;;;;;;5047690;28;20040;-61
2022/05/05 07:51:29;;;;;;;21.07;7.43;;;;;;;;;;5034898;28;20053;-60
2022/05/05 07:56:42;;;;;;;15.13;6.50;;;;;;;;;;5047693;28;20080;-60
2022/05/05 07:59:08;;;;;;;17.17;6.83;;;;;;;;;;5046096;28;20045;-60
2022/05/05 08:01:34;;;;;;;11.83;5.30;;;;;;;;;;5044900;28;20417;-61
2022/05/05 08:04:00;;;;;;;10.03;5.63;;;;;;;;;;5038827;28;20514;-60
2022/05/05 08:06:26;;;;;;;11.67;5.03;;;;;;;;;;5065982;28;20159;-60
2022/05/05 08:08:52;;;;;;;11.83;6.03;;;;;;;;;;5055415;28;20939;-61
2022/05/05 08:11:18;;;;;;;10.83;5.50;;;;;;;;;;5066021;28;20048;-60
2022/05/05 08:13:44;;;;;;;11.93;5.63;;;;;;;;;;5037470;28;20047;-60
2022/05/05 08:16:11;;;;;;;15.80;5.30;;;;;;;;;;5050029;28;20044;-60
2022/05/05 08:18:38;;;;;;;12.20;5.00;;;;;;;;;;5067867;28;20068;-61
2022/05/05 08:21:05;;;;;;;14.90;5.00;;;;;;;;;;5060560;28;20089;-61
2022/05/05 08:23:31;;;;;;;10.67;5.10;;;;;;;;;;5050487;28;20456;-61
2022/05/05 08:28:42;;;;;;;10.77;5.30;;;;;;;;;;5066583;28;20076;-61
2022/05/05 08:31:10;;;;;;;8.97;4.80;;;;;;;;;;5068010;28;20099;-61
2022/05/05 08:33:38;;;;;;;8.30;5.07;;;;;;;;;;5049659;28;20140;-61
2022/05/05 08:36:05;;;;;;;14.33;5.10;;;;;;;;;;5046713;28;20103;-59
2022/05/05 08:38:32;;;;;;;8.10;4.53;;;;;;;;;;5047816;28;20131;-59
2022/05/05 08:40:59;;;;;;;9.67;4.70;;;;;;;;;;5048002;28;20044;-59
2022/05/05 08:43:25;;;;;;;10.80;4.77;;;;;;;;;;5035776;28;20106;-59
2022/05/05 08:45:53;;;;;;;7.97;5.07;;;;;;;;;;5048276;28;20044;-59
2022/05/05 08:48:20;;;;;;;10.07;5.63;;;;;;;;;;5046036;28;20127;-59
2022/05/05 08:50:46;;;;;;;10.57;5.40;;;;;;;;;;5048207;28;20045;-59
2022/05/05 08:53:15;;;;;;;9.33;5.43;;;;;;;;;;5064721;28;20088;-59
2022/05/05 08:55:43;;;;;;;9.40;5.63;;;;;;;;;;5054080;28;20141;-59
2022/05/05 08:58:09;;;;;;;9.83;6.07;;;;;;;;;;5046155;28;20044;-59
2022/05/05 09:00:36;;;;;;;6.77;5.40;;;;;;;;;;5047445;28;20045;-59
2022/05/05 09:03:04;;;;;;;9.53;6.00;;;;;;;;;;5047371;28;20050;-59
2022/05/05 09:05:47;;;;;;;10.13;5.03;;;;;;;;;;5043852;28;20581;-59
2022/05/05 09:08:25;;;;;;;9.20;5.05;;;;;;;;;;5042359;28;20495;-59
2022/05/05 09:10:52;;;;;;;8.67;5.20;;;;;;;;;;5053194;28;20068;-59
2022/05/05 09:13:25;;;;;;;7.43;5.00;;;;;;;;;;5066338;28;20044;-59
2022/05/05 09:15:53;;;;;;;8.03;5.70;;;;;;;;;;5067012;28;20048;-60
2022/05/05 09:18:30;;;;;;;8.70;5.70;;;;;;;;;;5060727;28;20917;-59
2022/05/05 09:20:57;;;;;;;12.63;6.47;;;;;;;;;;5051925;28;20076;-59
2022/05/05 09:23:31;;;;;;;10.37;4.90;;;;;;;;;;5064976;28;20097;-59
2022/05/05 09:25:57;;;;;;;9.00;5.67;;;;;;;;;;5052031;28;20048;-60
2022/05/05 09:28:24;;;;;;;7.83;5.00;;;;;;;;;;5067379;28;20524;-59
2022/05/05 09:30:53;;;;;;;7.30;5.70;;;;;;;;;;5065185;28;20064;-59
2022/05/05 09:33:37;;;;;;;19.97;5.90;;;;;;;;;;5040660;28;20083;-60
2022/05/05 09:36:16;;;;;;;7.80;5.53;;;;;;;;;;5045020;28;20044;-60
2022/05/05 09:38:54;;;;;;;9.52;5.70;;;;;;;;;;5040622;28;20051;-60
2022/05/05 09:41:25;;;;;;;9.13;5.80;;;;;;;;;;5041825;28;20049;-59
2022/05/05 09:43:53;;;;;;;10.57;6.53;;;;;;;;;;5049739;28;20102;-59
2022/05/05 09:46:30;;;;;;;9.82;5.95;;;;;;;;;;5038558;28;20052;-60
2022/05/05 09:49:07;;;;;;;7.82;5.35;;;;;;;;;;5050690;28;20392;-60
2022/05/05 09:51:35;;;;;;;8.30;5.07;;;;;;;;;;5042992;28;20084;-60
2022/05/05 09:59:36;;;;;;;11.40;5.70;;;;;;;;;;5056486;28;20049;-60
2022/05/05 10:02:07;;;;;;;8.73;5.65;;;;;;;;;;5037521;28;20045;-60
2022/05/05 10:04:35;;;;;;;10.73;6.47;;;;;;;;;;5046888;28;20138;-60
2022/05/05 10:07:02;;;;;;;8.20;5.25;;;;;;;;;;5052521;28;20056;-61
2022/05/05 10:09:28;;;;;;;8.95;5.00;;;;;;;;;;5047810;28;20080;-60
2022/05/05 10:11:55;;;;;;;9.93;5.53;;;;;;;;;;5048005;28;20107;-60
2022/05/05 10:14:21;;;;;;;10.30;6.15;;;;;;;;;;5057744;28;20083;-60
2022/05/05 10:16:47;;;;;;;7.85;5.65;;;;;;;;;;5047610;28;20049;-60
2022/05/05 10:19:15;;;;;;;8.13;6.10;;;;;;;;;;5051529;28;20041;-60
2022/05/05 10:22:00;;;;;;;9.20;5.38;;;;;;;;;;5066786;28;20044;-60
2022/05/05 10:24:30;;;;;;;9.15;6.30;;;;;;;;;;5048720;28;20053;-60
2022/05/05 10:26:59;;;;;;;8.38;6.20;;;;;;;;;;5048923;28;20049;-60
2022/05/05 10:29:31;;;;;;;10.75;5.95;;;;;;;;;;5058732;28;20582;-60
2022/05/05 10:32:10;;;;;;;12.82;6.28;;;;;;;;;;5069739;28;20495;-60
2022/05/05 10:34:37;;;;;;;9.80;5.75;;;;;;;;;;5049576;28;20136;-60
2022/05/05 10:37:04;;;;;;;7.00;5.60;;;;;;;;;;5046979;28;20499;-60
2022/05/05 10:39:41;;;;;;;10.05;6.20;;;;;;;;;;5041745;28;20037;-60
2022/05/05 10:42:16;;;;;;;10.05;5.60;;;;;;;;;;5033418;28;20038;-60
2022/05/05 10:45:01;;;;;;;7.20;5.97;;;;;;;;;;5053429;28;20519;-60
2022/05/05 10:47:47;;;;;;;11.68;6.40;;;;;;;;;;5045511;28;20075;-60
2022/05/05 10:50:39;;;;;;;7.57;5.43;;;;;;;;;;5051370;28;20084;-60
2022/05/05 10:53:06;;;;;;;7.78;5.90;;;;;;;;;;5032409;28;20073;-60
2022/05/05 10:55:32;;;;;;;8.00;5.97;;;;;;;;;;5036298;28;20098;-60
2022/05/05 10:57:58;;;;;;;9.98;6.00;;;;;;;;;;5032323;28;20420;-60
2022/05/05 11:00:24;;;;;;;11.40;6.22;;;;;;;;;;5030318;28;20046;-60
2022/05/05 11:03:02;;;;;;;8.82;5.90;;;;;;;;;;5058252;28;20048;-60
2022/05/05 11:05:31;;;;;;;6.55;5.60;;;;;;;;;;5059734;28;20425;-60
2022/05/05 11:08:09;;;;;;;10.60;5.88;;;;;;;;;;5049446;28;20116;-60
2022/05/05 11:10:41;;;;;;;7.97;4.68;;;;;;;;;;5050031;28;20053;-59
2022/05/05 11:13:08;;;;;;;7.03;4.93;;;;;;;;;;5049081;28;20037;-59
2022/05/05 11:24:02;;;;;;;7.38;4.43;;;;;;;;;;5036648;28;20559;-60
2022/05/05 11:26:29;;;;;;;7.05;4.57;;;;;;;;;;5042092;28;20053;-60
2022/05/05 11:28:58;;;;;;;8.43;4.82;;;;;;;;;;5046303;28;20056;-60
2022/05/05 11:31:29;;;;;;;6.55;4.20;;;;;;;;;;5057822;28;20053;-60
2022/05/05 11:34:00;;;;;;;6.30;3.92;;;;;;;;;;5053757;28;20052;-60
2022/05/05 11:36:29;;;;;;;4.85;3.65;;;;;;;;;;5043391;28;20052;-60
2022/05/05 11:38:56;;;;;;;5.97;3.60;;;;;;;;;;5065214;28;20049;-60
2022/05/05 11:41:22;;;;;;;8.23;3.88;;;;;;;;;;5048587;28;20048;-60
2022/05/05 11:46:34;;;;;;;6.03;3.78;;;;;;;;;;5043952;28;20052;-60
2022/05/05 11:49:00;;;;;;;4.13;3.42;;;;;;;;;;5047231;28;20037;-60
2022/05/05 11:51:27;;;;;;;6.50;4.00;;;;;;;;;;5050042;28;20036;-60
2022/05/05 11:54:06;;;;;;;9.15;4.43;;;;;;;;;;5068863;28;20056;-60
2022/05/05 11:56:33;;;;;;;5.88;4.22;;;;;;;;;;5049207;28;20048;-60
2022/05/05 12:02:06;;;;;;;6.63;4.05;;;;;;;;;;5039519;28;20044;-60
2022/05/05 12:04:32;;;;;;;6.47;3.83;;;;;;;;;;5056033;28;20127;-60
2022/05/05 12:06:59;;;;;;;6.78;4.00;;;;;;;;;;5052393;28;20040;-60
2022/05/05 12:09:26;;;;;;;6.35;4.18;;;;;;;;;;5028185;28;20049;-61
2022/05/05 12:11:52;;;;;;;7.03;5.18;;;;;;;;;;5028282;28;20400;-60
2022/05/05 12:14:21;;;;;;;6.78;5.35;;;;;;;;;;5037578;28;20048;-60
2022/05/05 12:16:48;;;;;;;10.82;5.93;;;;;;;;;;5048471;28;20045;-60
2022/05/05 12:19:14;;;;;;;13.90;7.30;;;;;;;;;;5048558;28;20048;-60
2022/05/05 12:21:54;;;;;;;7.70;6.15;;;;;;;;;;5048508;28;20414;-60
2022/05/05 12:24:22;;;;;;;8.02;5.68;;;;;;;;;;5048237;28;20044;-60
2022/05/05 12:26:48;;;;;;;8.23;5.93;;;;;;;;;;5048443;28;20418;-60
2022/05/05 12:29:15;;;;;;;7.75;5.80;;;;;;;;;;5048549;28;20064;-60
2022/05/05 12:32:07;;;;;;;9.68;6.07;;;;;;;;;;5046831;28;20059;-60
2022/05/05 12:34:33;;;;;;;7.93;6.05;;;;;;;;;;5045077;28;20092;-60
2022/05/05 12:37:11;;;;;;;9.40;5.63;;;;;;;;;;5048295;28;20638;-60
2022/05/05 12:39:49;;;;;;;9.57;6.30;;;;;;;;;;5046930;28;20517;-60
2022/05/05 12:42:16;;;;;;;10.00;7.63;;;;;;;;;;5048171;28;20045;-60
2022/05/05 12:44:45;;;;;;;8.30;6.28;;;;;;;;;;5044802;28;20045;-60
2022/05/05 12:47:11;;;;;;;11.02;6.57;;;;;;;;;;5028390;28;20068;-59
2022/05/05 12:49:44;;;;;;;9.57;7.10;;;;;;;;;;5044736;28;20045;-60
2022/05/05 12:59:36;;;;;;;9.00;6.63;;;;;;;;;;5048739;28;20848;-59
2022/05/05 13:00:26;;;;;;;10.85;6.85;;;;;;;;;;5052266;28;20049;-60
2022/05/05 13:02:52;;;;;;;11.88;8.30;;;;;;;;;;5052070;28;20458;-60
2022/05/05 13:05:21;;;;;;;9.35;6.75;;;;;;;;;;5049879;28;20044;-60
2022/05/05 13:07:47;;;;;;;10.18;6.88;;;;;;;;;;5051951;28;20044;-60
2022/05/05 13:10:13;;;;;;;10.38;6.30;;;;;;;;;;5051998;28;20037;-60
2022/05/05 13:12:39;;;;;;;7.72;5.85;;;;;;;;;;5051815;28;20131;-60
2022/05/05 13:15:05;;;;;;;8.75;6.88;;;;;;;;;;5051395;28;20045;-59
2022/05/05 13:17:31;;;;;;;11.07;7.45;;;;;;;;;;5051959;28;20060;-59
2022/05/05 13:19:57;;;;;;;9.55;6.95;;;;;;;;;;5051675;28;20044;-59
2022/05/05 13:22:23;;;;;;;8.25;6.15;;;;;;;;;;5051553;28;20056;-59
2022/05/05 13:24:49;;;;;;;10.43;4.93;;;;;;;;;;5051696;28;20049;-60
2022/05/05 13:27:16;;;;;;;8.68;5.65;;;;;;;;;;5051665;28;20169;-59
2022/05/05 13:29:43;;;;;;;6.20;5.10;;;;;;;;;;5049967;28;20061;-59
2022/05/05 13:32:10;;;;;;;8.00;5.10;;;;;;;;;;5051789;28;20325;-59
2022/05/05 13:34:36;;;;;;;9.65;6.10;;;;;;;;;;5051609;28;20053;-59
2022/05/05 13:37:02;;;;;;;11.23;6.00;;;;;;;;;;5032651;28;20053;-59
2022/05/05 13:39:28;;;;;;;8.88;5.18;;;;;;;;;;5031553;28;20527;-59
2022/05/05 13:41:54;;;;;;;6.97;5.03;;;;;;;;;;5029965;28;20507;-60
2022/05/05 13:44:20;;;;;;;8.45;5.68;;;;;;;;;;5031447;28;20042;-59
2022/05/05 13:46:46;;;;;;;9.75;4.97;;;;;;;;;;5030925;28;20143;-59
2022/05/05 13:49:12;;;;;;;8.18;4.60;;;;;;;;;;5031227;28;20044;-59
2022/05/05 13:51:38;;;;;;;8.27;5.43;;;;;;;;;;5031247;28;20053;-59
2022/05/05 13:54:04;;;;;;;9.02;3.97;;;;;;;;;;5031186;28;20052;-59
2022/05/05 13:56:31;;;;;;;4.93;3.17;;;;;;;;;;5031131;28;20041;-59
2022/05/05 13:58:57;;;;;;;4.03;2.90;;;;;;;;;;5030868;28;20107;-59
2022/05/05 14:01:23;;;;;;;4.80;2.60;;;;;;;;;;5030913;28;20129;-59
2022/05/05 14:03:49;;;;;;;4.45;3.05;;;;;;;;;;5030576;28;20057;-59
2022/05/05 14:06:15;;;;;;;5.85;4.47;;;;;;;;;;5031079;28;20831;-59
2022/05/05 14:14:11;;;;;;;6.68;3.65;;;;;;;;;;5030626;28;20444;-60
2022/05/05 14:16:38;;;;;;;5.95;3.72;;;;;;;;;;5043102;28;20663;-60
2022/05/05 14:19:04;;;;;;;6.93;2.65;;;;;;;;;;5049897;28;20106;-60
2022/05/05 14:21:30;;;;;;;3.47;2.00;;;;;;;;;;5037907;28;20388;-60
2022/05/05 14:23:56;;;;;;;3.97;2.58;;;;;;;;;;5045336;28;20107;-59
2022/05/05 14:26:23;;;;;;;3.60;2.20;;;;;;;;;;5034500;28;20037;-59
2022/05/05 14:28:49;;;;;;;4.38;2.25;;;;;;;;;;5030632;28;20133;-60
2022/05/05 14:31:15;;;;;;;6.63;4.45;;;;;;;;;;5030614;28;20060;-60
2022/05/05 14:33:41;;;;;;;8.57;5.20;;;;;;;;;;5028499;28;20049;-59
2022/05/05 14:36:07;;;;;;;7.68;4.63;;;;;;;;;;5047889;28;20048;-60
2022/05/05 14:38:34;;;;;;;4.15;2.70;;;;;;;;;;5051421;28;20087;-60
2022/05/05 14:41:00;;;;;;;4.07;2.50;;;;;;;;;;5044260;28;20570;-59
2022/05/05 14:43:26;;;;;;;3.25;2.30;;;;;;;;;;5045740;28;20044;-59
2022/05/05 14:45:52;;;;;;;7.45;2.38;;;;;;;;;;5065919;28;20084;-59
2022/05/05 14:48:18;;;;;;;4.20;3.08;;;;;;;;;;5050070;28;20098;-59
2022/05/05 14:50:44;;;;;;;3.63;2.80;;;;;;;;;;5048720;28;20045;-59
2022/05/05 14:53:10;;;;;;;5.53;2.63;;;;;;;;;;5049316;28;20041;-59
2022/05/05 14:55:36;;;;;;;4.30;2.83;;;;;;;;;;5048424;28;20036;-59
2022/05/05 14:58:02;;;;;;;4.00;2.60;;;;;;;;;;5049083;28;20506;-59
2022/05/05 15:00:28;;;;;;;5.70;2.63;;;;;;;;;;5048393;28;20087;-59
2022/05/05 15:02:54;;;;;;;5.20;2.53;;;;;;;;;;5048227;28;20037;-60
2022/05/05 15:05:22;;;;;;;5.90;2.75;;;;;;;;;;5041246;28;20049;-59
2022/05/05 15:07:48;;;;;;;6.30;3.38;;;;;;;;;;5040233;28;20045;-60
2022/05/05 15:10:14;;;;;;;3.65;3.20;;;;;;;;;;5049664;28;20041;-59
2022/05/05 15:12:40;;;;;;;4.97;3.92;;;;;;;;;;5048611;28;20053;-59
2022/05/05 15:15:07;;;;;;;6.05;3.83;;;;;;;;;;5048211;28;20166;-61
2022/05/05 15:17:33;;;;;;;7.35;3.78;;;;;;;;;;5044170;28;20045;-59
2022/05/05 15:19:59;;;;;;;4.78;3.75;;;;;;;;;;5049758;28;20071;-60
2022/05/05 15:22:25;;;;;;;7.78;4.75;;;;;;;;;;5049424;28;20041;-60
2022/05/05 15:25:08;;;;;;;5.60;3.50;;;;;;;;;;5049820;28;20487;-60